createdAt,value
2018-08-11T00:01:42.256Z,23.40
2018-08-11T00:04:12.565Z,23.40
2018-08-11T00:06:42.993Z,23.40
2018-08-11T00:09:13.370Z,23.30
2018-08-11T00:11:43.778Z,23.30
2018-08-11T00:14:14.106Z,23.30
2018-08-11T00:16:44.503Z,23.30
2018-08-11T00:19:14.861Z,23.20
2018-08-11T00:21:45.248Z,23.30
2018-08-11T00:24:15.662Z,23.20
2018-08-11T00:26:46.077Z,23.20
2018-08-11T00:29:16.429Z,23.20
2018-08-11T00:31:46.749Z,23.20
2018-08-11T00:34:17.089Z,23.20
2018-08-11T00:36:47.367Z,23.10
2018-08-11T00:39:17.694Z,23.10
2018-08-11T00:41:48.060Z,23.10
2018-08-11T00:44:18.401Z,23.10
2018-08-11T00:46:48.741Z,23.10
2018-08-11T00:49:19.096Z,23.10
2018-08-11T00:51:49.451Z,23.10
2018-08-11T00:54:19.784Z,23.00
2018-08-11T00:56:50.245Z,22.90
2018-08-11T00:59:20.617Z,22.80
2018-08-11T01:01:50.942Z,22.80
2018-08-11T01:04:21.337Z,22.80
2018-08-11T01:06:51.661Z,22.80
2018-08-11T01:09:22.008Z,22.70
2018-08-11T01:11:53.264Z,22.70
2018-08-11T01:14:23.629Z,22.70
2018-08-11T01:16:54.074Z,22.70
2018-08-11T01:19:24.496Z,22.70
2018-08-11T01:21:54.948Z,22.70
2018-08-11T01:24:25.359Z,22.80
2018-08-11T01:26:55.769Z,22.80
2018-08-11T01:29:26.684Z,22.80
2018-08-11T01:31:57.096Z,22.80
2018-08-11T01:34:27.423Z,22.90
2018-08-11T01:36:57.776Z,23.00
2018-08-11T01:39:29.054Z,23.10
2018-08-11T01:41:59.443Z,23.00
2018-08-11T01:44:31.055Z,23.00
2018-08-11T01:47:01.547Z,23.00
2018-08-11T01:49:31.911Z,23.10
2018-08-11T01:52:02.378Z,23.00
2018-08-11T01:54:33.184Z,23.00
2018-08-11T01:57:03.791Z,23.00
2018-08-11T01:59:34.145Z,23.00
2018-08-11T02:02:04.750Z,23.10
2018-08-11T02:04:35.112Z,23.10
2018-08-11T02:07:05.619Z,23.00
2018-08-11T02:09:36.616Z,22.80
2018-08-11T02:12:07.990Z,22.70
2018-08-11T02:14:38.646Z,22.70
2018-08-11T02:17:09.055Z,22.60
2018-08-11T02:19:39.449Z,22.50
2018-08-11T02:22:09.924Z,22.40
2018-08-11T02:24:40.327Z,22.10
2018-08-11T02:27:10.719Z,22.00
2018-08-11T02:29:41.038Z,21.90
2018-08-11T02:32:11.501Z,21.80
2018-08-11T02:34:41.962Z,21.70
2018-08-11T02:37:12.394Z,21.60
2018-08-11T02:39:42.784Z,21.50
2018-08-11T02:42:13.508Z,21.50
2018-08-11T02:44:43.926Z,21.40
2018-08-11T02:47:14.283Z,21.40
2018-08-11T02:49:44.649Z,21.30
2018-08-11T02:52:15.033Z,21.20
2018-08-11T02:54:45.378Z,21.20
2018-08-11T02:57:15.720Z,21.10
2018-08-11T02:59:46.115Z,21.10
2018-08-11T03:02:16.526Z,21.10
2018-08-11T03:04:46.812Z,21.10
2018-08-11T03:07:17.151Z,21.00
2018-08-11T03:09:47.529Z,21.00
2018-08-11T03:12:17.975Z,21.10
2018-08-11T03:14:48.284Z,21.10
2018-08-11T03:17:18.612Z,21.10
2018-08-11T03:19:48.954Z,21.10
2018-08-11T03:22:19.346Z,21.20
2018-08-11T03:24:49.827Z,21.20
2018-08-11T03:27:20.284Z,21.20
2018-08-11T03:29:51.402Z,21.20
2018-08-11T03:32:21.704Z,21.20
2018-08-11T03:34:52.212Z,21.10
2018-08-11T03:37:22.581Z,21.10
2018-08-11T03:39:53.359Z,21.10
2018-08-11T03:42:24.140Z,21.20
2018-08-11T03:44:54.464Z,21.20
2018-08-11T03:47:25.264Z,21.20
2018-08-11T03:49:55.642Z,21.20
2018-08-11T03:52:26.019Z,21.20
2018-08-11T03:54:56.324Z,21.20
2018-08-11T03:57:26.677Z,21.20
2018-08-11T03:59:57.000Z,21.20
2018-08-11T04:02:27.410Z,21.10
2018-08-11T04:04:57.689Z,21.20
2018-08-11T04:07:28.125Z,21.20
2018-08-11T04:09:59.379Z,21.10
2018-08-11T04:12:30.078Z,21.10
2018-08-11T04:15:00.408Z,21.10
2018-08-11T04:17:36.539Z,21.10
2018-08-11T04:20:07.816Z,21.10
2018-08-11T04:22:38.415Z,21.10
2018-08-11T04:25:09.241Z,20.90
2018-08-11T04:27:39.838Z,20.80
2018-08-11T04:30:11.628Z,20.70
2018-08-11T04:32:41.976Z,20.60
2018-08-11T04:35:12.301Z,20.60
2018-08-11T04:37:42.773Z,20.70
2018-08-11T04:40:13.080Z,20.70
2018-08-11T04:42:43.636Z,20.80
2018-08-11T04:45:13.977Z,20.80
2018-08-11T04:47:44.551Z,20.80
2018-08-11T04:50:15.426Z,20.90
2018-08-11T04:52:45.793Z,21.00
2018-08-11T04:55:16.146Z,21.00
2018-08-11T04:57:46.467Z,21.00
2018-08-11T05:00:16.907Z,21.00
2018-08-11T05:02:47.338Z,21.00
2018-08-11T05:05:17.669Z,21.00
2018-08-11T05:07:47.981Z,20.90
2018-08-11T05:10:18.287Z,20.70
2018-08-11T05:12:48.635Z,20.70
2018-08-11T05:15:19.116Z,20.80
2018-08-11T05:17:49.608Z,20.80
2018-08-11T05:20:20.000Z,20.70
2018-08-11T05:22:50.317Z,20.80
2018-08-11T05:25:20.707Z,20.80
2018-08-11T05:27:51.091Z,20.90
2018-08-11T05:30:21.517Z,20.90
2018-08-11T05:32:51.857Z,20.90
2018-08-11T05:35:22.188Z,20.80
2018-08-11T05:37:52.580Z,20.90
2018-08-11T05:40:22.942Z,20.90
2018-08-11T05:42:53.606Z,20.90
2018-08-11T05:45:23.957Z,20.80
2018-08-11T05:47:54.296Z,20.80
2018-08-11T05:50:24.705Z,20.80
2018-08-11T05:52:54.986Z,20.80
2018-08-11T05:55:25.324Z,20.80
2018-08-11T05:57:55.660Z,20.80
2018-08-11T06:00:26.036Z,20.80
2018-08-11T06:02:56.356Z,20.80
2018-08-11T06:05:26.732Z,20.90
2018-08-11T06:07:57.060Z,20.80
2018-08-11T06:10:27.457Z,20.00
2018-08-11T06:12:57.747Z,20.80
2018-08-11T06:15:28.067Z,20.80
2018-08-11T06:17:58.362Z,20.80
2018-08-11T06:20:28.681Z,20.70
2018-08-11T06:22:58.974Z,20.80
2018-08-11T06:25:29.317Z,20.80
2018-08-11T06:27:59.639Z,20.90
2018-08-11T06:30:29.972Z,21.00
2018-08-11T06:33:00.312Z,21.10
2018-08-11T06:35:30.665Z,21.20
2018-08-11T06:38:01.046Z,21.20
2018-08-11T06:40:31.442Z,21.30
2018-08-11T06:43:01.852Z,21.40
2018-08-11T06:45:32.198Z,21.40
2018-08-11T06:48:02.560Z,21.50
2018-08-11T06:50:32.920Z,21.50
2018-08-11T06:53:03.268Z,21.60
2018-08-11T06:55:33.615Z,21.60
2018-08-11T06:58:03.873Z,21.60
2018-08-11T07:00:34.143Z,21.60
2018-08-11T07:03:04.544Z,21.70
2018-08-11T07:05:34.942Z,21.70
2018-08-11T07:08:05.353Z,21.70
2018-08-11T07:10:35.729Z,21.80
2018-08-11T07:13:06.124Z,21.80
2018-08-11T07:15:36.557Z,21.80
2018-08-11T07:18:07.021Z,21.90
2018-08-11T07:20:37.365Z,21.90
2018-08-11T07:23:07.792Z,21.90
2018-08-11T07:25:38.262Z,21.90
2018-08-11T07:28:08.955Z,21.80
2018-08-11T07:30:39.415Z,21.80
2018-08-11T07:33:09.836Z,21.80
2018-08-11T07:35:40.747Z,21.70
2018-08-11T07:40:47.648Z,21.70
2018-08-11T07:43:18.009Z,21.70
2018-08-11T07:45:48.367Z,21.70
2018-08-11T07:48:18.679Z,21.60
2018-08-11T07:50:49.024Z,21.60
2018-08-11T07:53:19.439Z,21.60
2018-08-11T07:55:49.819Z,21.50
2018-08-11T07:58:20.600Z,21.60
2018-08-11T08:00:52.027Z,21.60
2018-08-11T08:03:22.407Z,21.70
2018-08-11T08:05:52.794Z,21.80
2018-08-11T08:08:23.245Z,21.90
2018-08-11T08:10:53.682Z,21.90
2018-08-11T08:13:24.091Z,22.10
2018-08-11T08:15:54.364Z,22.20
2018-08-11T08:18:24.819Z,22.30
2018-08-11T08:20:55.101Z,22.40
2018-08-11T08:23:25.646Z,22.50
2018-08-11T08:25:56.036Z,22.70
2018-08-11T08:28:26.326Z,22.70
2018-08-11T08:30:56.592Z,22.80
2018-08-11T08:33:26.965Z,22.90
2018-08-11T08:35:57.320Z,23.00
2018-08-11T08:38:27.752Z,23.10
2018-08-11T08:40:58.102Z,23.30
2018-08-11T08:43:28.416Z,23.40
2018-08-11T08:45:58.771Z,23.50
2018-08-11T08:48:29.143Z,23.60
2018-08-11T08:50:59.653Z,23.70
2018-08-11T08:53:30.206Z,23.90
2018-08-11T08:56:01.885Z,24.00
2018-08-11T08:58:32.299Z,24.00
2018-08-11T09:01:02.709Z,24.00
2018-08-11T09:03:33.483Z,24.10
2018-08-11T09:06:04.133Z,24.20
2018-08-11T09:08:34.693Z,24.30
2018-08-11T09:11:05.070Z,24.40
2018-08-11T09:13:35.534Z,24.50
2018-08-11T09:16:05.949Z,24.50
2018-08-11T09:18:36.337Z,24.50
2018-08-11T09:21:06.766Z,24.50
2018-08-11T09:23:37.289Z,24.40
2018-08-11T09:26:08.026Z,24.40
2018-08-11T09:28:38.418Z,24.40
2018-08-11T09:31:08.784Z,24.60
2018-08-11T09:33:39.158Z,24.50
2018-08-11T09:36:09.491Z,24.70
2018-08-11T09:38:39.778Z,24.80
2018-08-11T09:41:10.538Z,24.90
2018-08-11T09:43:40.914Z,25.10
2018-08-11T09:46:11.245Z,25.30
2018-08-11T09:48:41.670Z,25.30
2018-08-11T09:51:12.119Z,25.40
2018-08-11T09:53:42.560Z,25.30
2018-08-11T09:56:12.844Z,25.40
2018-08-11T09:58:43.163Z,25.50
2018-08-11T10:01:18.734Z,25.60
2018-08-11T10:03:49.212Z,25.70
2018-08-11T10:06:19.843Z,25.70
2018-08-11T10:08:50.208Z,25.60
2018-08-11T10:11:20.583Z,25.50
2018-08-11T10:13:51.039Z,25.50
2018-08-11T10:16:21.566Z,25.50
2018-08-11T10:18:51.924Z,25.20
2018-08-11T10:21:22.296Z,25.00
2018-08-11T10:23:52.693Z,24.80
2018-08-11T10:26:23.022Z,24.60
2018-08-11T10:28:53.327Z,24.50
2018-08-11T10:31:24.036Z,24.40
2018-08-11T10:33:54.434Z,24.30
2018-08-11T10:36:24.846Z,24.30
2018-08-11T10:38:55.321Z,24.20
2018-08-11T10:41:25.713Z,24.10
2018-08-11T10:43:56.084Z,24.20
2018-08-11T10:46:26.401Z,24.20
2018-08-11T10:48:57.175Z,24.20
2018-08-11T10:51:27.503Z,24.40
2018-08-11T10:53:57.793Z,24.50
2018-08-11T10:56:28.132Z,24.60
2018-08-11T10:58:58.534Z,24.90
2018-08-11T11:01:28.919Z,25.20
2018-08-11T11:03:59.291Z,25.50
2018-08-11T11:06:29.749Z,25.80
2018-08-11T11:09:00.128Z,26.00
2018-08-11T11:11:30.523Z,26.20
2018-08-11T11:14:00.977Z,26.40
2018-08-11T11:16:31.340Z,26.60
2018-08-11T11:19:01.687Z,26.70
2018-08-11T11:21:31.983Z,26.70
2018-08-11T11:24:02.363Z,26.80
2018-08-11T11:26:32.717Z,26.70
2018-08-11T11:29:03.092Z,26.60
2018-08-11T11:31:33.411Z,26.70
2018-08-11T11:34:03.799Z,26.70
2018-08-11T11:36:34.163Z,26.60
2018-08-11T11:39:06.518Z,26.40
2018-08-11T11:41:37.352Z,26.20
2018-08-11T11:44:08.339Z,26.00
2018-08-11T11:46:38.602Z,25.80
2018-08-11T11:49:08.900Z,25.80
2018-08-11T11:51:39.182Z,25.60
2018-08-11T11:54:09.591Z,25.40
2018-08-11T11:56:39.968Z,25.10
2018-08-11T11:59:10.353Z,24.90
2018-08-11T12:01:40.679Z,24.70
2018-08-11T12:04:11.091Z,24.10
2018-08-11T12:06:41.751Z,23.70
2018-08-11T12:09:12.585Z,23.10
2018-08-11T12:11:42.887Z,22.60
2018-08-11T12:14:13.279Z,22.50
2018-08-11T12:16:43.600Z,22.40
2018-08-11T12:19:13.971Z,22.40
2018-08-11T12:21:44.288Z,22.30
2018-08-11T12:24:14.632Z,22.40
2018-08-11T12:26:44.950Z,22.50
2018-08-11T12:29:15.335Z,22.70
2018-08-11T12:31:45.656Z,22.90
2018-08-11T12:34:15.978Z,23.10
2018-08-11T12:36:46.340Z,23.40
2018-08-11T12:39:16.709Z,23.70
2018-08-11T12:41:47.070Z,24.50
2018-08-11T12:44:17.463Z,25.50
2018-08-11T12:46:47.782Z,26.60
2018-08-11T12:49:18.171Z,27.20
2018-08-11T12:51:48.515Z,27.30
2018-08-11T12:54:18.788Z,27.10
2018-08-11T12:56:49.163Z,26.80
2018-08-11T12:59:19.496Z,26.80
2018-08-11T13:01:49.852Z,27.00
2018-08-11T13:04:20.483Z,27.30
2018-08-11T13:06:51.116Z,27.40
2018-08-11T13:09:21.403Z,27.40
2018-08-11T13:11:51.850Z,27.60
2018-08-11T13:14:22.207Z,27.60
2018-08-11T13:16:52.530Z,27.50
2018-08-11T13:19:22.922Z,27.30
2018-08-11T13:21:53.240Z,27.20
2018-08-11T13:24:23.663Z,27.30
2018-08-11T13:26:53.926Z,27.30
2018-08-11T13:29:24.299Z,27.20
2018-08-11T13:31:54.567Z,27.20
2018-08-11T13:34:24.891Z,27.40
2018-08-11T13:36:55.208Z,27.80
2018-08-11T13:39:25.559Z,28.40
2018-08-11T13:41:55.933Z,28.60
2018-08-11T13:44:26.388Z,28.70
2018-08-11T13:46:56.707Z,28.80
2018-08-11T13:49:27.027Z,28.80
2018-08-11T13:51:57.328Z,28.60
2018-08-11T13:54:27.827Z,28.50
2018-08-11T13:56:57.979Z,28.60
2018-08-11T13:59:28.372Z,28.60
2018-08-11T14:01:58.716Z,28.70
2018-08-11T14:04:29.132Z,28.60
2018-08-11T14:06:59.683Z,28.50
2018-08-11T14:09:30.127Z,28.60
2018-08-11T14:12:00.436Z,29.00
2018-08-11T14:14:30.868Z,29.30
2018-08-11T14:17:01.216Z,29.30
2018-08-11T14:19:31.790Z,28.90
2018-08-11T14:22:02.164Z,28.70
2018-08-11T14:24:32.607Z,28.30
2018-08-11T14:27:03.031Z,28.00
2018-08-11T14:29:33.422Z,27.70
2018-08-11T14:32:03.809Z,27.40
2018-08-11T14:34:34.224Z,27.30
2018-08-11T14:37:04.629Z,27.50
2018-08-11T14:39:34.937Z,28.00
2018-08-11T14:42:05.330Z,28.30
2018-08-11T14:44:35.803Z,28.40
2018-08-11T14:47:06.177Z,28.70
2018-08-11T14:49:36.491Z,29.00
2018-08-11T14:52:06.919Z,29.50
2018-08-11T14:54:37.308Z,29.80
2018-08-11T14:57:07.802Z,30.00
2018-08-11T14:59:38.218Z,30.10
2018-08-11T15:02:08.636Z,29.90
2018-08-11T15:04:38.983Z,30.00
2018-08-11T15:07:09.464Z,30.20
2018-08-11T15:09:39.921Z,30.00
2018-08-11T15:12:10.189Z,30.00
2018-08-11T15:14:40.510Z,30.50
2018-08-11T15:17:10.876Z,30.80
2018-08-11T15:19:41.233Z,30.50
2018-08-11T15:22:11.606Z,30.70
2018-08-11T15:24:41.931Z,31.00
2018-08-11T15:27:12.226Z,31.40
2018-08-11T15:29:42.592Z,31.90
2018-08-11T15:32:13.268Z,32.10
2018-08-11T15:34:43.677Z,32.00
2018-08-11T15:37:13.972Z,31.90
2018-08-11T15:39:44.318Z,32.50
2018-08-11T15:42:14.682Z,33.10
2018-08-11T15:44:45.527Z,33.30
2018-08-11T15:47:15.913Z,33.90
2018-08-11T15:49:46.327Z,33.60
2018-08-11T15:52:16.661Z,33.70
2018-08-11T15:54:47.024Z,34.10
2018-08-11T15:57:17.317Z,34.70
2018-08-11T15:59:47.643Z,35.10
2018-08-11T16:02:17.955Z,35.20
2018-08-11T16:04:48.315Z,35.30
2018-08-11T16:07:18.752Z,34.50
2018-08-11T16:09:49.091Z,33.70
2018-08-11T16:12:19.481Z,33.80
2018-08-11T16:14:49.816Z,32.90
2018-08-11T16:17:20.118Z,32.30
2018-08-11T16:19:50.471Z,31.70
2018-08-11T16:22:20.863Z,31.10
2018-08-11T16:24:51.227Z,30.70
2018-08-11T16:27:21.619Z,30.70
2018-08-11T16:29:51.932Z,30.50
2018-08-11T16:32:22.296Z,30.30
2018-08-11T16:34:52.723Z,29.80
2018-08-11T16:37:23.063Z,29.40
2018-08-11T16:39:53.404Z,28.80
2018-08-11T16:42:23.752Z,28.20
2018-08-11T16:44:54.042Z,27.70
2018-08-11T16:47:24.340Z,27.50
2018-08-11T16:49:54.688Z,27.40
2018-08-11T16:52:25.062Z,27.30
2018-08-11T16:54:55.420Z,27.10
2018-08-11T16:57:25.783Z,27.10
2018-08-11T16:59:56.150Z,26.90
2018-08-11T17:02:26.483Z,26.80
2018-08-11T17:04:56.824Z,26.70
2018-08-11T17:07:27.426Z,26.50
2018-08-11T17:09:57.791Z,26.30
2018-08-11T17:12:28.147Z,26.00
2018-08-11T17:14:58.544Z,25.80
2018-08-11T17:17:28.866Z,25.50
2018-08-11T17:19:59.223Z,25.30
2018-08-11T17:22:29.528Z,25.10
2018-08-11T17:24:59.962Z,24.90
2018-08-11T17:27:30.292Z,24.70
2018-08-11T17:30:00.675Z,24.50
2018-08-11T17:32:31.050Z,24.50
2018-08-11T17:35:01.399Z,24.40
2018-08-11T17:37:31.772Z,24.20
2018-08-11T17:40:02.131Z,24.20
2018-08-11T17:42:32.488Z,24.10
2018-08-11T17:45:02.836Z,24.00
2018-08-11T17:47:33.190Z,24.00
2018-08-11T17:50:03.666Z,23.90
2018-08-11T17:52:34.046Z,23.80
2018-08-11T17:55:04.390Z,23.70
2018-08-11T17:57:34.707Z,23.70
2018-08-11T18:00:05.927Z,23.60
2018-08-11T18:02:36.269Z,23.60
2018-08-11T18:05:07.086Z,23.50
2018-08-11T18:07:37.627Z,23.40
2018-08-11T18:10:08.066Z,23.30
2018-08-11T18:12:38.431Z,23.20
2018-08-11T18:15:08.733Z,23.20
2018-08-11T18:17:39.027Z,23.00
2018-08-11T18:20:09.477Z,23.00
2018-08-11T18:22:39.812Z,22.90
2018-08-11T18:25:10.145Z,22.80
2018-08-11T18:27:40.482Z,22.70
2018-08-11T18:30:11.184Z,22.60
2018-08-11T18:32:41.571Z,22.60
2018-08-11T18:35:11.949Z,22.50
2018-08-11T18:37:42.299Z,22.50
2018-08-11T18:40:12.775Z,22.40
2018-08-11T18:42:43.179Z,22.30
2018-08-11T18:45:13.856Z,22.20
2018-08-11T18:47:44.253Z,22.20
2018-08-11T18:50:14.690Z,22.10
2018-08-11T18:52:45.061Z,21.90
2018-08-11T18:55:15.483Z,21.90
2018-08-11T18:57:45.915Z,21.80
2018-08-11T19:00:18.580Z,21.70
2018-08-11T19:02:48.896Z,21.70
2018-08-11T19:05:19.357Z,21.60
2018-08-11T19:07:49.848Z,21.60
2018-08-11T19:10:20.676Z,21.50
2018-08-11T19:12:51.088Z,21.50
2018-08-11T19:15:21.410Z,21.40
2018-08-11T19:17:51.761Z,21.40
2018-08-11T19:20:22.129Z,21.30
2018-08-11T19:22:52.569Z,21.30
2018-08-11T19:25:22.948Z,21.20
2018-08-11T19:27:53.295Z,21.10
2018-08-11T19:30:23.703Z,21.10
2018-08-11T19:32:54.029Z,21.10
2018-08-11T19:35:24.411Z,21.10
2018-08-11T19:37:54.779Z,21.00
2018-08-11T19:40:25.167Z,20.90
2018-08-11T19:42:55.588Z,20.90
2018-08-11T19:45:25.982Z,20.90
2018-08-11T19:47:56.276Z,20.90
2018-08-11T19:50:26.644Z,20.80
2018-08-11T19:52:56.932Z,20.80
2018-08-11T19:55:27.255Z,20.80
2018-08-11T19:57:57.656Z,20.70
2018-08-11T20:00:28.040Z,20.70
2018-08-11T20:02:58.427Z,20.70
2018-08-11T20:05:28.945Z,20.60
2018-08-11T20:07:59.696Z,20.50
2018-08-11T20:10:30.068Z,20.50
2018-08-11T20:13:00.336Z,20.50
2018-08-11T20:15:30.648Z,20.50
2018-08-11T20:18:01.004Z,20.40
2018-08-11T20:20:31.510Z,20.50
2018-08-11T20:23:01.866Z,20.40
2018-08-11T20:25:32.377Z,20.40
2018-08-11T20:28:02.608Z,20.30
2018-08-11T20:30:32.919Z,20.30
2018-08-11T20:33:03.321Z,20.30
2018-08-11T20:35:33.748Z,20.20
2018-08-11T20:38:04.194Z,20.20
2018-08-11T20:40:34.552Z,20.10
2018-08-11T20:43:04.970Z,20.20
2018-08-11T20:45:35.887Z,20.10
2018-08-11T20:48:06.278Z,20.00
2018-08-11T20:50:36.943Z,19.90
2018-08-11T20:53:07.304Z,19.80
2018-08-11T20:55:37.780Z,19.70
2018-08-11T20:58:08.124Z,19.70
2018-08-11T21:00:38.492Z,19.80
2018-08-11T21:03:12.275Z,19.80
2018-08-11T21:05:42.723Z,19.80
2018-08-11T21:08:13.176Z,19.80
2018-08-11T21:10:43.581Z,19.80
2018-08-11T21:13:14.874Z,19.70
2018-08-11T21:15:45.307Z,19.60
2018-08-11T21:18:15.655Z,19.60
2018-08-11T21:20:46.202Z,19.50
2018-08-11T21:23:16.580Z,19.50
2018-08-11T21:25:46.960Z,19.40
2018-08-11T21:28:17.391Z,19.40
2018-08-11T21:30:47.813Z,19.30
2018-08-11T21:33:18.271Z,19.30
2018-08-11T21:35:48.684Z,19.30
2018-08-11T21:38:19.083Z,19.30
2018-08-11T21:40:49.544Z,19.20
2018-08-11T21:43:19.939Z,19.20
2018-08-11T21:45:50.388Z,19.20
2018-08-11T21:48:20.730Z,19.20
2018-08-11T21:50:51.122Z,19.10
2018-08-11T21:53:21.619Z,19.10
2018-08-11T21:55:52.120Z,19.00
2018-08-11T21:58:22.463Z,19.00
2018-08-11T22:00:56.896Z,19.00
2018-08-11T22:03:27.313Z,18.90
2018-08-11T22:05:57.823Z,19.00
2018-08-11T22:08:28.491Z,18.90
2018-08-11T22:10:58.954Z,18.90
2018-08-11T22:13:29.325Z,18.90
2018-08-11T22:16:00.185Z,18.90
2018-08-11T22:18:30.964Z,18.90
2018-08-11T22:21:02.200Z,18.80
2018-08-11T22:23:32.616Z,18.80
2018-08-11T22:26:03.093Z,18.80
2018-08-11T22:28:34.442Z,18.70
2018-08-11T22:31:04.839Z,18.70
2018-08-11T22:33:35.208Z,18.70
2018-08-11T22:36:06.710Z,18.60
2018-08-11T22:38:37.073Z,18.60
2018-08-11T22:41:07.630Z,18.60
2018-08-11T22:43:38.095Z,18.50
2018-08-11T22:46:08.609Z,18.50
2018-08-11T22:48:38.973Z,18.50
2018-08-11T22:51:09.396Z,18.50
2018-08-11T22:53:39.802Z,18.50
2018-08-11T22:56:10.305Z,18.50
2018-08-11T22:58:40.701Z,18.40
2018-08-11T23:01:11.176Z,18.30
2018-08-11T23:03:41.599Z,18.30
2018-08-11T23:06:11.950Z,18.30
2018-08-11T23:08:42.524Z,18.20
2018-08-11T23:11:12.893Z,18.20
2018-08-11T23:13:43.297Z,18.20
2018-08-11T23:16:13.826Z,18.20
2018-08-11T23:18:44.219Z,18.20
2018-08-11T23:21:14.679Z,18.20
2018-08-11T23:23:45.012Z,18.20
2018-08-11T23:26:15.446Z,18.20
2018-08-11T23:28:46.006Z,18.10
2018-08-11T23:31:16.568Z,18.00
2018-08-11T23:33:46.947Z,18.00
2018-08-11T23:36:17.330Z,18.00
2018-08-11T23:38:47.663Z,18.00
2018-08-11T23:41:17.952Z,18.00
2018-08-11T23:43:48.341Z,18.00
2018-08-11T23:46:18.718Z,18.00
2018-08-11T23:48:49.212Z,18.10
2018-08-11T23:51:19.631Z,18.00
2018-08-11T23:53:49.995Z,18.00
2018-08-11T23:56:21.313Z,18.10
2018-08-11T23:58:51.732Z,18.00
